createdAt,value
2018-06-22T00:00:57.138Z,13.71
2018-06-22T00:01:57.083Z,13.67
2018-06-22T00:02:57.077Z,13.68
2018-06-22T00:03:57.075Z,13.67
2018-06-22T00:04:57.068Z,13.70
2018-06-22T00:05:57.069Z,13.57
2018-06-22T00:06:57.063Z,13.63
2018-06-22T00:07:57.058Z,13.52
2018-06-22T00:08:57.054Z,13.59
2018-06-22T00:09:57.050Z,13.53
2018-06-22T00:10:57.050Z,13.53
2018-06-22T00:11:57.044Z,13.57
2018-06-22T00:12:57.039Z,13.47
2018-06-22T00:13:57.037Z,13.46
2018-06-22T00:14:57.030Z,13.42
2018-06-22T00:15:57.027Z,13.44
2018-06-22T00:16:57.022Z,13.38
2018-06-22T00:17:57.020Z,13.27
2018-06-22T00:18:57.020Z,13.30
2018-06-22T00:19:57.014Z,13.28
2018-06-22T00:20:57.009Z,13.18
2018-06-22T00:21:57.005Z,13.18
2018-06-22T00:22:57.001Z,13.18
2018-06-22T00:23:56.996Z,13.35
2018-06-22T00:24:56.992Z,13.35
2018-06-22T00:25:56.988Z,13.22
2018-06-22T00:26:56.985Z,13.31
2018-06-22T00:27:56.988Z,13.30
2018-06-22T00:28:56.977Z,13.39
2018-06-22T00:29:56.972Z,13.39
2018-06-22T00:30:56.969Z,13.44
2018-06-22T00:31:56.964Z,13.47
2018-06-22T00:32:56.961Z,13.47
2018-06-22T00:33:56.955Z,13.49
2018-06-22T00:34:56.952Z,13.42
2018-06-22T00:35:56.948Z,13.49
2018-06-22T00:36:56.942Z,13.50
2018-06-22T00:37:56.939Z,13.47
2018-06-22T00:38:56.935Z,13.50
2018-06-22T00:39:56.931Z,13.42
2018-06-22T00:40:56.929Z,13.37
2018-06-22T00:41:56.924Z,13.30
2018-06-22T00:42:56.915Z,13.22
2018-06-22T00:43:56.915Z,13.22
2018-06-22T00:44:56.909Z,13.20
2018-06-22T00:45:56.909Z,13.23
2018-06-22T00:46:56.910Z,13.22
2018-06-22T00:47:56.899Z,13.08
2018-06-22T00:48:56.892Z,13.11
2018-06-22T00:49:56.889Z,13.11
2018-06-22T00:50:56.887Z,13.00
2018-06-22T00:51:56.881Z,13.04
2018-06-22T00:52:56.876Z,13.04
2018-06-22T00:53:56.886Z,12.98
2018-06-22T00:54:56.871Z,12.94
2018-06-22T00:55:56.866Z,12.95
2018-06-22T00:56:56.866Z,12.87
2018-06-22T00:57:56.857Z,12.86
2018-06-22T00:58:56.857Z,12.80
2018-06-22T00:59:56.852Z,12.86
2018-06-22T01:00:56.844Z,12.79
2018-06-22T01:01:56.842Z,12.78
2018-06-22T01:02:56.839Z,12.79
2018-06-22T01:03:56.839Z,12.76
2018-06-22T01:04:56.831Z,12.79
2018-06-22T01:05:56.826Z,12.75
2018-06-22T01:06:56.822Z,12.73
2018-06-22T01:07:56.820Z,12.78
2018-06-22T01:08:56.816Z,12.75
2018-06-22T01:09:56.811Z,12.83
2018-06-22T01:10:56.803Z,12.76
2018-06-22T01:11:56.806Z,12.76
2018-06-22T01:12:56.800Z,12.78
2018-06-22T01:13:56.794Z,12.79
2018-06-22T01:14:56.791Z,12.82
2018-06-22T01:15:56.792Z,12.78
2018-06-22T01:16:56.784Z,12.82
2018-06-22T01:17:56.781Z,12.90
2018-06-22T01:18:56.775Z,12.75
2018-06-22T01:19:56.772Z,12.76
2018-06-22T01:20:56.768Z,12.87
2018-06-22T01:21:56.764Z,12.78
2018-06-22T01:22:56.760Z,12.90
2018-06-22T01:23:56.755Z,12.76
2018-06-22T01:24:56.751Z,12.79
2018-06-22T01:25:56.746Z,12.78
2018-06-22T01:26:56.744Z,12.73
2018-06-22T01:27:56.736Z,12.80
2018-06-22T01:28:56.733Z,12.80
2018-06-22T01:29:56.734Z,12.75
2018-06-22T01:30:56.724Z,12.75
2018-06-22T01:31:56.722Z,12.64
2018-06-22T01:32:56.715Z,12.65
2018-06-22T01:33:56.715Z,12.49
2018-06-22T01:34:56.708Z,12.60
2018-06-22T01:35:56.704Z,12.54
2018-06-22T01:36:56.701Z,12.53
2018-06-22T01:37:56.696Z,12.49
2018-06-22T01:38:56.692Z,12.53
2018-06-22T01:39:56.689Z,12.53
2018-06-22T01:40:56.681Z,12.39
2018-06-22T01:41:56.677Z,12.40
2018-06-22T01:42:56.672Z,12.37
2018-06-22T01:43:56.669Z,12.42
2018-06-22T01:44:56.663Z,12.39
2018-06-22T01:45:56.662Z,12.43
2018-06-22T01:46:56.656Z,12.42
2018-06-22T01:47:56.654Z,12.32
2018-06-22T01:48:56.647Z,12.36
2018-06-22T01:49:56.644Z,12.35
2018-06-22T01:50:56.639Z,12.32
2018-06-22T01:51:56.640Z,12.35
2018-06-22T01:52:56.631Z,12.39
2018-06-22T01:53:56.628Z,12.36
2018-06-22T01:54:56.622Z,12.29
2018-06-22T01:55:56.618Z,12.22
2018-06-22T01:56:56.614Z,12.25
2018-06-22T01:57:56.609Z,12.27
2018-06-22T01:58:56.605Z,12.27
2018-06-22T01:59:56.601Z,12.37
2018-06-22T02:00:56.596Z,12.32
2018-06-22T02:01:56.592Z,12.39
2018-06-22T02:02:56.587Z,12.25
2018-06-22T02:03:56.585Z,12.29
2018-06-22T02:04:56.580Z,12.29
2018-06-22T02:05:56.704Z,12.43
2018-06-22T02:06:56.569Z,12.39
2018-06-22T02:07:56.564Z,12.36
2018-06-22T02:08:56.559Z,12.28
2018-06-22T02:09:56.555Z,12.35
2018-06-22T02:10:56.556Z,12.31
2018-06-22T02:11:56.545Z,12.32
2018-06-22T02:12:56.538Z,12.25
2018-06-22T02:13:56.536Z,12.28
2018-06-22T02:14:56.536Z,12.31
2018-06-22T02:15:56.526Z,12.31
2018-06-22T02:16:56.520Z,12.24
2018-06-22T02:17:56.516Z,12.27
2018-06-22T02:18:56.561Z,12.22
2018-06-22T02:19:56.509Z,12.22
2018-06-22T02:20:56.500Z,12.29
2018-06-22T02:21:56.495Z,12.20
2018-06-22T02:22:56.491Z,12.31
2018-06-22T02:23:56.487Z,12.27
2018-06-22T02:24:56.478Z,12.27
2018-06-22T02:25:56.476Z,12.15
2018-06-22T02:26:56.472Z,12.27
2018-06-22T02:27:56.465Z,12.12
2018-06-22T02:28:56.459Z,12.18
2018-06-22T02:29:56.455Z,12.20
2018-06-22T02:30:56.449Z,12.15
2018-06-22T02:31:56.444Z,12.18
2018-06-22T02:32:56.440Z,12.15
2018-06-22T02:33:56.434Z,12.20
2018-06-22T02:34:56.439Z,12.15
2018-06-22T02:35:56.426Z,12.10
2018-06-22T02:36:56.422Z,12.18
2018-06-22T02:37:56.413Z,12.15
2018-06-22T02:38:56.413Z,12.06
2018-06-22T02:39:56.404Z,12.02
2018-06-22T02:40:56.397Z,12.06
2018-06-22T02:41:56.394Z,12.10
2018-06-22T02:42:56.389Z,12.09
2018-06-22T02:43:56.387Z,12.04
2018-06-22T02:44:56.380Z,12.06
2018-06-22T02:45:56.374Z,12.06
2018-06-22T02:46:56.368Z,12.04
2018-06-22T02:47:56.362Z,12.02
2018-06-22T02:48:56.349Z,12.02
2018-06-22T02:49:56.354Z,11.97
2018-06-22T02:50:56.347Z,11.91
2018-06-22T02:51:56.342Z,11.90
2018-06-22T02:52:56.338Z,11.90
2018-06-22T02:53:56.330Z,11.87
2018-06-22T02:54:56.331Z,11.83
2018-06-22T02:55:56.322Z,11.81
2018-06-22T02:56:56.328Z,11.80
2018-06-22T02:57:56.312Z,11.81
2018-06-22T02:58:56.309Z,11.81
2018-06-22T02:59:56.343Z,11.78
2018-06-22T03:00:56.300Z,11.83
2018-06-22T03:01:56.291Z,11.83
2018-06-22T03:02:56.287Z,11.80
2018-06-22T03:03:56.282Z,11.75
2018-06-22T03:04:56.276Z,11.75
2018-06-22T03:05:56.270Z,11.83
2018-06-22T03:06:56.268Z,11.73
2018-06-22T03:07:56.263Z,11.88
2018-06-22T03:08:56.261Z,11.81
2018-06-22T03:09:56.252Z,11.75
2018-06-22T03:10:56.245Z,11.75
2018-06-22T03:11:56.252Z,11.75
2018-06-22T03:12:56.236Z,11.73
2018-06-22T03:13:56.233Z,11.81
2018-06-22T03:14:56.225Z,11.84
2018-06-22T03:15:56.220Z,11.83
2018-06-22T03:16:56.215Z,11.78
2018-06-22T03:17:56.209Z,11.77
2018-06-22T03:18:56.205Z,11.69
2018-06-22T03:19:56.201Z,11.80
2018-06-22T03:20:56.193Z,11.83
2018-06-22T03:21:56.187Z,11.84
2018-06-22T03:22:56.183Z,11.83
2018-06-22T03:23:56.178Z,11.73
2018-06-22T03:24:56.173Z,11.69
2018-06-22T03:25:56.168Z,11.66
2018-06-22T03:26:56.163Z,11.65
2018-06-22T03:27:56.157Z,11.62
2018-06-22T03:28:56.156Z,11.69
2018-06-22T03:29:56.148Z,11.57
2018-06-22T03:30:56.141Z,11.57
2018-06-22T03:31:56.171Z,11.55
2018-06-22T03:32:56.132Z,11.47
2018-06-22T03:33:56.126Z,11.54
2018-06-22T03:34:56.121Z,11.51
2018-06-22T03:35:56.117Z,11.50
2018-06-22T03:36:56.115Z,11.51
2018-06-22T03:37:56.110Z,11.52
2018-06-22T03:38:56.102Z,11.50
2018-06-22T03:39:56.096Z,11.48
2018-06-22T03:40:56.091Z,11.51
2018-06-22T03:41:56.088Z,11.55
2018-06-22T03:42:56.080Z,11.55
2018-06-22T03:43:56.074Z,11.51
2018-06-22T03:44:56.071Z,11.57
2018-06-22T03:45:56.064Z,11.50
2018-06-22T03:46:56.061Z,11.51
2018-06-22T03:47:56.055Z,11.50
2018-06-22T03:48:56.050Z,11.50
2018-06-22T03:49:56.044Z,11.48
2018-06-22T03:50:56.036Z,11.52
2018-06-22T03:51:56.036Z,11.55
2018-06-22T03:52:56.027Z,11.47
2018-06-22T03:53:56.025Z,11.48
2018-06-22T03:54:56.021Z,11.52
2018-06-22T03:55:56.015Z,11.45
2018-06-22T03:56:56.006Z,11.51
2018-06-22T03:57:56.001Z,11.47
2018-06-22T03:58:55.996Z,11.52
2018-06-22T03:59:55.989Z,11.55
2018-06-22T04:00:55.987Z,11.54
2018-06-22T04:01:55.982Z,11.51
2018-06-22T04:02:55.977Z,11.48
2018-06-22T04:03:55.978Z,11.35
2018-06-22T04:04:55.963Z,11.32
2018-06-22T04:05:55.958Z,11.47
2018-06-22T04:06:55.955Z,11.44
2018-06-22T04:07:55.952Z,11.41
2018-06-22T04:08:55.998Z,11.43
2018-06-22T04:09:55.938Z,11.41
2018-06-22T04:10:55.931Z,11.35
2018-06-22T04:11:55.929Z,11.44
2018-06-22T04:12:55.922Z,11.43
2018-06-22T04:13:55.921Z,11.48
2018-06-22T04:14:55.913Z,11.37
2018-06-22T04:15:55.908Z,11.43
2018-06-22T04:16:55.907Z,11.41
2018-06-22T04:17:55.896Z,11.43
2018-06-22T04:18:55.900Z,11.36
2018-06-22T04:19:55.884Z,11.50
2018-06-22T04:20:55.908Z,11.51
2018-06-22T04:21:55.877Z,11.62
2018-06-22T04:22:55.871Z,11.66
2018-06-22T04:23:55.864Z,11.66
2018-06-22T04:24:55.859Z,11.66
2018-06-22T04:25:55.856Z,11.72
2018-06-22T04:26:55.851Z,11.70
2018-06-22T04:27:55.852Z,11.77
2018-06-22T04:28:55.840Z,11.75
2018-06-22T04:29:55.833Z,11.81
2018-06-22T04:30:55.831Z,11.86
2018-06-22T04:31:55.826Z,11.78
2018-06-22T04:32:55.818Z,11.87
2018-06-22T04:33:55.817Z,11.78
2018-06-22T04:34:55.808Z,11.86
2018-06-22T04:35:55.803Z,11.84
2018-06-22T04:36:55.804Z,11.87
2018-06-22T04:37:55.791Z,11.91
2018-06-22T04:38:55.789Z,11.88
2018-06-22T04:39:55.782Z,11.86
2018-06-22T04:40:55.780Z,11.86
2018-06-22T04:41:55.775Z,11.87
2018-06-22T04:42:55.770Z,11.84
2018-06-22T04:43:55.763Z,11.83
2018-06-22T04:44:55.756Z,11.95
2018-06-22T04:45:55.754Z,11.78
2018-06-22T04:46:55.750Z,11.88
2018-06-22T04:47:55.743Z,11.90
2018-06-22T04:48:55.738Z,11.94
2018-06-22T04:49:55.730Z,12.04
2018-06-22T04:50:55.727Z,11.97
2018-06-22T04:51:55.724Z,12.00
2018-06-22T04:52:55.717Z,11.88
2018-06-22T04:53:55.715Z,11.87
2018-06-22T04:54:55.710Z,11.99
2018-06-22T04:55:55.708Z,11.99
2018-06-22T04:56:55.698Z,12.02
2018-06-22T04:57:55.692Z,12.06
2018-06-22T04:58:55.689Z,12.07
2018-06-22T04:59:55.683Z,12.12
2018-06-22T05:00:55.677Z,12.09
2018-06-22T05:01:55.672Z,12.09
2018-06-22T05:02:55.669Z,12.03
2018-06-22T05:03:55.667Z,12.02
2018-06-22T05:04:55.657Z,12.10
2018-06-22T05:05:55.652Z,12.06
2018-06-22T05:06:55.648Z,12.20
2018-06-22T05:07:55.644Z,12.18
2018-06-22T05:08:55.639Z,12.27
2018-06-22T05:09:55.634Z,12.20
2018-06-22T05:10:55.630Z,12.15
2018-06-22T05:11:55.626Z,12.20
2018-06-22T05:12:55.619Z,12.13
2018-06-22T05:13:55.613Z,12.28
2018-06-22T05:14:55.609Z,12.17
2018-06-22T05:15:55.607Z,12.24
2018-06-22T05:16:55.599Z,12.25
2018-06-22T05:17:55.598Z,12.22
2018-06-22T05:18:55.590Z,12.28
2018-06-22T05:19:55.587Z,12.40
2018-06-22T05:20:55.581Z,12.37
2018-06-22T05:21:55.579Z,12.42
2018-06-22T05:22:55.597Z,12.54
2018-06-22T05:23:55.572Z,12.58
2018-06-22T05:24:55.642Z,12.67
2018-06-22T05:25:55.557Z,12.78
2018-06-22T05:26:55.568Z,12.78
2018-06-22T05:27:55.548Z,12.97
2018-06-22T05:28:55.544Z,13.01
2018-06-22T05:29:55.540Z,13.12
2018-06-22T05:30:55.535Z,13.16
2018-06-22T05:31:55.532Z,13.11
2018-06-22T05:32:55.523Z,13.08
2018-06-22T05:33:55.520Z,13.09
2018-06-22T05:34:55.515Z,13.25
2018-06-22T05:35:55.589Z,13.22
2018-06-22T05:36:55.506Z,13.19
2018-06-22T05:37:55.501Z,13.46
2018-06-22T05:38:55.499Z,13.59
2018-06-22T05:39:55.495Z,13.56
2018-06-22T05:40:55.486Z,13.54
2018-06-22T05:41:55.483Z,13.67
2018-06-22T05:42:55.479Z,13.60
2018-06-22T05:43:55.473Z,13.67
2018-06-22T05:44:55.469Z,13.71
2018-06-22T05:45:55.464Z,13.56
2018-06-22T05:46:55.460Z,13.52
2018-06-22T05:47:55.455Z,13.60
2018-06-22T05:48:55.449Z,13.62
2018-06-22T05:49:55.447Z,13.65
2018-06-22T05:50:55.497Z,13.74
2018-06-22T05:51:55.436Z,13.78
2018-06-22T05:52:55.432Z,13.87
2018-06-22T05:53:55.426Z,13.87
2018-06-22T05:54:55.423Z,13.90
2018-06-22T05:55:55.420Z,13.85
2018-06-22T05:56:55.415Z,13.86
2018-06-22T05:57:55.408Z,13.89
2018-06-22T05:58:55.405Z,13.87
2018-06-22T05:59:55.399Z,13.85
2018-06-22T06:00:55.392Z,14.03
2018-06-22T06:01:55.389Z,14.03
2018-06-22T06:02:55.381Z,14.05
2018-06-22T06:03:55.378Z,14.00
2018-06-22T06:04:55.375Z,14.00
2018-06-22T06:05:55.368Z,14.17
2018-06-22T06:06:55.364Z,14.18
2018-06-22T06:07:55.359Z,14.15
2018-06-22T06:08:55.396Z,14.22
2018-06-22T06:09:55.347Z,14.26
2018-06-22T06:10:55.342Z,14.30
2018-06-22T06:11:55.338Z,14.37
2018-06-22T06:12:55.333Z,14.48
2018-06-22T06:13:55.327Z,14.54
2018-06-22T06:14:55.320Z,14.41
2018-06-22T06:15:55.340Z,14.47
2018-06-22T06:16:55.313Z,14.51
2018-06-22T06:17:55.309Z,14.66
2018-06-22T06:18:55.303Z,14.62
2018-06-22T06:19:55.299Z,14.73
2018-06-22T06:20:55.293Z,14.63
2018-06-22T06:21:55.288Z,14.66
2018-06-22T06:22:55.283Z,14.59
2018-06-22T06:23:55.280Z,14.63
2018-06-22T06:24:55.319Z,14.79
2018-06-22T06:25:55.269Z,14.91
2018-06-22T06:26:55.264Z,14.96
2018-06-22T06:27:55.259Z,15.04
2018-06-22T06:28:55.254Z,14.82
2018-06-22T06:29:55.248Z,14.84
2018-06-22T06:30:55.244Z,14.94
2018-06-22T06:31:55.239Z,15.02
2018-06-22T06:32:55.237Z,14.99
2018-06-22T06:33:55.232Z,15.10
2018-06-22T06:34:55.225Z,15.06
2018-06-22T06:35:55.221Z,15.04
2018-06-22T06:36:55.217Z,15.19
2018-06-22T06:37:55.212Z,15.15
2018-06-22T06:38:55.205Z,15.15
2018-06-22T06:39:55.202Z,15.11
2018-06-22T06:40:55.197Z,15.17
2018-06-22T06:41:55.283Z,15.35
2018-06-22T06:42:55.187Z,15.33
2018-06-22T06:43:55.182Z,15.22
2018-06-22T06:44:55.178Z,15.29
2018-06-22T06:45:55.173Z,15.21
2018-06-22T06:46:55.170Z,15.21
2018-06-22T06:47:55.165Z,15.07
2018-06-22T06:48:55.160Z,14.84
2018-06-22T06:49:55.157Z,14.65
2018-06-22T06:50:55.152Z,14.70
2018-06-22T06:51:55.152Z,14.63
2018-06-22T06:52:55.143Z,14.54
2018-06-22T06:53:55.137Z,14.59
2018-06-22T06:54:55.135Z,14.55
2018-06-22T06:55:55.131Z,14.47
2018-06-22T06:56:55.203Z,14.48
2018-06-22T06:57:55.120Z,14.50
2018-06-22T06:58:55.116Z,14.55
2018-06-22T06:59:55.111Z,14.53
2018-06-22T07:00:55.109Z,14.48
2018-06-22T07:01:55.106Z,14.60
2018-06-22T07:02:55.097Z,14.65
2018-06-22T07:03:55.093Z,14.65
2018-06-22T07:04:55.088Z,14.82
2018-06-22T07:05:55.086Z,14.81
2018-06-22T07:06:55.079Z,14.92
2018-06-22T07:07:55.074Z,14.96
2018-06-22T07:08:55.075Z,15.11
2018-06-22T07:09:55.064Z,15.09
2018-06-22T07:10:55.061Z,15.24
2018-06-22T07:11:55.058Z,15.27
2018-06-22T07:12:55.055Z,15.27
2018-06-22T07:13:55.047Z,15.25
2018-06-22T07:14:55.042Z,15.24
2018-06-22T07:15:55.041Z,15.22
2018-06-22T07:16:55.046Z,15.29
2018-06-22T07:17:55.032Z,15.28
2018-06-22T07:18:55.026Z,15.31
2018-06-22T07:19:55.022Z,15.33
2018-06-22T07:20:55.017Z,15.39
2018-06-22T07:21:55.013Z,15.43
2018-06-22T07:22:55.008Z,15.39
2018-06-22T07:23:55.005Z,15.28
2018-06-22T07:24:55.004Z,15.40
2018-06-22T07:25:54.997Z,15.39
2018-06-22T07:26:54.994Z,15.52
2018-06-22T07:27:54.988Z,15.52
2018-06-22T07:28:54.983Z,15.49
2018-06-22T07:29:54.981Z,15.52
2018-06-22T07:30:54.977Z,15.49
2018-06-22T07:31:54.974Z,15.36
2018-06-22T07:32:54.968Z,15.52
2018-06-22T07:33:54.966Z,15.44
2018-06-22T07:34:54.964Z,15.47
2018-06-22T07:35:54.980Z,15.44
2018-06-22T07:36:54.954Z,15.29
2018-06-22T07:37:54.951Z,15.31
2018-06-22T07:38:54.948Z,15.33
2018-06-22T07:39:54.949Z,15.28
2018-06-22T07:40:54.940Z,15.33
2018-06-22T07:41:54.937Z,15.40
2018-06-22T07:42:54.938Z,15.19
2018-06-22T07:43:55.054Z,15.14
2018-06-22T07:44:54.927Z,15.21
2018-06-22T07:45:54.923Z,15.15
2018-06-22T07:46:54.919Z,15.14
2018-06-22T07:47:54.915Z,15.14
2018-06-22T07:48:54.911Z,15.11
2018-06-22T07:49:54.974Z,15.15
2018-06-22T07:50:54.902Z,15.06
2018-06-22T07:51:54.899Z,15.02
2018-06-22T07:52:54.896Z,15.18
2018-06-22T07:53:54.893Z,15.14
2018-06-22T07:54:54.885Z,15.18
2018-06-22T07:55:54.884Z,15.15
2018-06-22T07:56:54.882Z,15.04
2018-06-22T07:57:54.926Z,15.04
2018-06-22T07:58:54.873Z,15.03
2018-06-22T07:59:54.870Z,15.19
2018-06-22T08:00:54.864Z,15.19
2018-06-22T08:01:54.863Z,15.24
2018-06-22T08:02:54.859Z,15.29
2018-06-22T08:03:54.862Z,15.22
2018-06-22T08:04:54.857Z,15.35
2018-06-22T08:05:54.847Z,15.28
2018-06-22T08:06:54.845Z,15.27
2018-06-22T08:07:54.841Z,15.14
2018-06-22T08:08:54.837Z,15.09
2018-06-22T08:09:54.831Z,15.14
2018-06-22T08:10:54.828Z,15.11
2018-06-22T08:11:54.826Z,15.22
2018-06-22T08:12:54.823Z,15.15
2018-06-22T08:13:54.818Z,15.03
2018-06-22T08:14:54.813Z,15.04
2018-06-22T08:15:54.824Z,15.09
2018-06-22T08:16:54.873Z,15.04
2018-06-22T08:17:54.805Z,15.03
2018-06-22T08:18:54.803Z,14.92
2018-06-22T08:19:54.797Z,14.94
2018-06-22T08:20:54.795Z,14.92
2018-06-22T08:21:54.791Z,14.91
2018-06-22T08:22:54.789Z,14.92
2018-06-22T08:23:54.785Z,14.97
2018-06-22T08:24:54.779Z,15.00
2018-06-22T08:25:54.780Z,14.99
2018-06-22T08:26:54.769Z,14.92
2018-06-22T08:27:54.772Z,15.10
2018-06-22T08:28:54.768Z,15.00
2018-06-22T08:29:54.764Z,15.04
2018-06-22T08:30:54.760Z,15.04
2018-06-22T08:31:54.758Z,15.19
2018-06-22T08:32:54.754Z,15.17
2018-06-22T08:33:54.748Z,15.11
2018-06-22T08:34:54.755Z,15.19
2018-06-22T08:35:54.757Z,15.14
2018-06-22T08:36:54.739Z,15.11
2018-06-22T08:37:54.736Z,15.07
2018-06-22T08:38:54.733Z,15.07
2018-06-22T08:39:54.733Z,14.92
2018-06-22T08:40:54.726Z,15.03
2018-06-22T08:41:54.759Z,15.03
2018-06-22T08:42:54.741Z,15.15
2018-06-22T08:43:54.715Z,15.14
2018-06-22T08:44:54.712Z,15.06
2018-06-22T08:45:54.708Z,15.04
2018-06-22T08:46:54.705Z,15.10
2018-06-22T08:47:54.702Z,15.17
2018-06-22T08:48:54.751Z,15.15
2018-06-22T08:49:54.704Z,15.19
2018-06-22T08:50:54.696Z,15.22
2018-06-22T08:51:54.690Z,15.19
2018-06-22T08:52:54.682Z,15.09
2018-06-22T08:53:54.679Z,15.09
2018-06-22T08:54:54.679Z,15.14
2018-06-22T08:55:54.681Z,15.15
2018-06-22T08:56:54.672Z,15.21
2018-06-22T08:57:54.670Z,15.18
2018-06-22T08:58:54.668Z,15.17
2018-06-22T08:59:54.664Z,15.19
2018-06-22T09:00:54.660Z,15.14
2018-06-22T09:01:54.659Z,15.14
2018-06-22T09:02:54.655Z,15.04
2018-06-22T09:03:54.651Z,15.04
2018-06-22T09:04:54.648Z,15.02
2018-06-22T09:05:54.645Z,15.15
2018-06-22T09:06:54.642Z,15.11
2018-06-22T09:07:54.640Z,15.15
2018-06-22T09:08:54.635Z,15.15
2018-06-22T09:09:54.632Z,15.04
2018-06-22T09:10:54.629Z,15.07
2018-06-22T09:11:54.629Z,15.04
2018-06-22T09:12:54.622Z,15.04
2018-06-22T09:13:54.620Z,15.04
2018-06-22T09:14:54.616Z,15.11
2018-06-22T09:15:54.613Z,15.06
2018-06-22T09:16:54.608Z,15.11
2018-06-22T09:17:54.605Z,15.15
2018-06-22T09:18:54.600Z,15.15
2018-06-22T09:19:54.597Z,15.14
2018-06-22T09:20:54.595Z,15.17
2018-06-22T09:21:54.591Z,15.15
2018-06-22T09:22:54.589Z,15.11
2018-06-22T09:23:54.585Z,15.11
2018-06-22T09:24:54.583Z,15.17
2018-06-22T09:25:54.576Z,15.19
2018-06-22T09:26:54.573Z,15.21
2018-06-22T09:27:54.569Z,15.19
2018-06-22T09:28:54.565Z,15.18
2018-06-22T09:29:54.560Z,15.10
2018-06-22T09:30:54.558Z,15.18
2018-06-22T09:31:54.554Z,15.17
2018-06-22T09:32:54.548Z,15.17
2018-06-22T09:33:54.546Z,15.18
2018-06-22T09:34:54.544Z,15.18
2018-06-22T09:35:54.541Z,15.19
2018-06-22T09:36:54.567Z,15.17
2018-06-22T09:37:54.531Z,15.18
2018-06-22T09:38:54.530Z,15.25
2018-06-22T09:39:54.525Z,15.25
2018-06-22T09:40:54.521Z,15.25
2018-06-22T09:41:54.519Z,15.24
2018-06-22T09:42:54.589Z,15.24
2018-06-22T09:43:54.510Z,15.31
2018-06-22T09:44:54.507Z,15.36
2018-06-22T09:45:54.502Z,15.27
2018-06-22T09:46:54.500Z,15.36
2018-06-22T09:47:54.497Z,15.35
2018-06-22T09:48:54.492Z,15.31
2018-06-22T09:49:54.496Z,15.43
2018-06-22T09:50:54.486Z,15.28
2018-06-22T09:51:54.486Z,15.47
2018-06-22T09:52:54.482Z,15.49
2018-06-22T09:53:54.475Z,15.36
2018-06-22T09:54:54.470Z,15.42
2018-06-22T09:55:54.473Z,15.44
2018-06-22T09:56:54.465Z,15.46
2018-06-22T09:57:54.460Z,15.54
2018-06-22T09:58:54.457Z,15.58
2018-06-22T09:59:54.453Z,15.59
2018-06-22T10:00:54.446Z,15.77
2018-06-22T10:01:54.446Z,15.73
2018-06-22T10:02:54.440Z,15.77
2018-06-22T10:03:54.437Z,15.94
2018-06-22T10:04:54.434Z,15.95
2018-06-22T10:05:54.458Z,16.04
2018-06-22T10:06:54.428Z,16.21
2018-06-22T10:07:54.429Z,16.26
2018-06-22T10:08:54.423Z,16.33
2018-06-22T10:09:54.417Z,16.26
2018-06-22T10:10:54.417Z,16.32
2018-06-22T10:11:54.410Z,16.36
2018-06-22T10:12:54.407Z,16.41
2018-06-22T10:13:54.403Z,16.71
2018-06-22T10:14:54.405Z,16.75
2018-06-22T10:15:54.400Z,16.83
2018-06-22T10:16:54.394Z,16.54
2018-06-22T10:17:54.389Z,16.41
2018-06-22T10:18:54.389Z,16.38
2018-06-22T10:19:54.385Z,16.24
2018-06-22T10:20:54.382Z,16.28
2018-06-22T10:21:54.380Z,16.24
2018-06-22T10:22:54.378Z,16.38
2018-06-22T10:23:54.373Z,16.24
2018-06-22T10:24:54.369Z,16.04
2018-06-22T10:25:54.368Z,16.02
2018-06-22T10:26:54.405Z,15.86
2018-06-22T10:27:54.365Z,15.82
2018-06-22T10:28:54.360Z,15.80
2018-06-22T10:29:54.353Z,15.82
2018-06-22T10:30:54.353Z,15.80
2018-06-22T10:31:54.350Z,15.83
2018-06-22T10:32:54.351Z,15.77
2018-06-22T10:33:54.370Z,15.84
2018-06-22T10:34:54.340Z,15.92
2018-06-22T10:35:54.339Z,15.91
2018-06-22T10:36:54.338Z,16.12
2018-06-22T10:37:54.331Z,16.23
2018-06-22T10:38:54.330Z,16.31
2018-06-22T10:39:54.326Z,16.29
2018-06-22T10:40:54.323Z,16.36
2018-06-22T10:41:54.320Z,16.33
2018-06-22T10:42:54.322Z,16.41
2018-06-22T10:43:54.314Z,16.43
2018-06-22T10:44:54.310Z,16.51
2018-06-22T10:45:54.356Z,16.68
2018-06-22T10:46:54.307Z,16.64
2018-06-22T10:47:54.306Z,16.84
2018-06-22T10:48:54.299Z,16.86
2018-06-22T10:49:54.300Z,16.84
2018-06-22T10:50:54.295Z,16.79
2018-06-22T10:51:54.292Z,16.91
2018-06-22T10:52:54.289Z,16.81
2018-06-22T10:53:54.285Z,16.76
2018-06-22T10:54:54.284Z,16.75
2018-06-22T10:55:54.282Z,16.84
2018-06-22T10:56:54.284Z,16.89
2018-06-22T10:57:54.276Z,16.79
2018-06-22T10:58:54.271Z,16.79
2018-06-22T10:59:54.367Z,16.71
2018-06-22T11:00:54.266Z,16.81
2018-06-22T11:01:54.261Z,16.84
2018-06-22T11:02:54.269Z,16.93
2018-06-22T11:03:54.257Z,16.86
2018-06-22T11:04:54.255Z,16.79
2018-06-22T11:05:54.253Z,16.87
2018-06-22T11:06:54.248Z,16.94
2018-06-22T11:07:54.250Z,17.15
2018-06-22T11:08:54.243Z,17.23
2018-06-22T11:09:54.242Z,17.06
2018-06-22T11:10:54.240Z,17.01
2018-06-22T11:11:54.240Z,17.19
2018-06-22T11:12:54.238Z,17.29
2018-06-22T11:13:54.249Z,17.54
2018-06-22T11:14:54.234Z,17.52
2018-06-22T11:15:54.229Z,17.42
2018-06-22T11:16:54.274Z,17.49
2018-06-22T11:17:54.224Z,17.42
2018-06-22T11:18:54.225Z,17.38
2018-06-22T11:19:54.219Z,17.36
2018-06-22T11:20:54.216Z,17.51
2018-06-22T11:21:54.214Z,17.76
2018-06-22T11:22:54.217Z,17.80
2018-06-22T11:23:54.212Z,17.51
2018-06-22T11:24:54.301Z,17.26
2018-06-22T11:25:54.214Z,17.41
2018-06-22T11:26:54.205Z,17.31
2018-06-22T11:27:54.207Z,17.42
2018-06-22T11:28:54.205Z,17.67
2018-06-22T11:29:54.199Z,17.97
2018-06-22T11:30:54.216Z,17.90
2018-06-22T11:31:54.196Z,18.20
2018-06-22T11:32:54.197Z,18.34
2018-06-22T11:33:54.200Z,18.01
2018-06-22T11:34:54.196Z,17.72
2018-06-22T11:35:54.335Z,17.76
2018-06-22T11:36:54.192Z,17.26
2018-06-22T11:37:54.188Z,17.41
2018-06-22T11:38:54.186Z,17.72
2018-06-22T11:39:54.190Z,18.07
2018-06-22T11:40:54.184Z,18.07
2018-06-22T11:41:54.184Z,18.15
2018-06-22T11:42:54.182Z,18.20
2018-06-22T11:43:54.181Z,18.19
2018-06-22T11:44:54.180Z,18.20
2018-06-22T11:45:54.180Z,18.47
2018-06-22T11:46:54.180Z,18.86
2018-06-22T11:47:54.180Z,18.81
2018-06-22T11:48:54.176Z,18.68
2018-06-22T11:49:54.177Z,18.73
2018-06-22T11:50:54.181Z,18.99
2018-06-22T11:51:54.184Z,18.95
2018-06-22T11:52:54.176Z,18.45
2018-06-22T11:53:54.180Z,18.66
2018-06-22T11:54:54.178Z,18.62
2018-06-22T11:55:54.180Z,18.43
2018-06-22T11:56:54.176Z,18.73
2018-06-22T11:57:54.179Z,18.80
2018-06-22T11:58:54.177Z,18.71
2018-06-22T11:59:54.179Z,18.29
2018-06-22T12:00:54.178Z,18.22
2018-06-22T12:01:54.180Z,18.47
2018-06-22T12:02:54.179Z,18.18
2018-06-22T12:03:54.180Z,17.86
2018-06-22T12:04:54.181Z,17.98
2018-06-22T12:05:54.184Z,18.00
2018-06-22T12:06:54.180Z,18.01
2018-06-22T12:07:54.176Z,18.74
2018-06-22T12:08:54.176Z,18.55
2018-06-22T12:09:54.175Z,18.41
2018-06-22T12:10:54.177Z,18.11
2018-06-22T12:11:54.175Z,17.87
2018-06-22T12:12:54.174Z,17.78
2018-06-22T12:13:54.174Z,18.10
2018-06-22T12:14:54.173Z,18.28
2018-06-22T12:15:54.173Z,18.55
2018-06-22T12:16:54.170Z,18.47
2018-06-22T12:17:54.172Z,18.49
2018-06-22T12:18:54.173Z,18.47
2018-06-22T12:19:54.170Z,18.53
2018-06-22T12:20:54.175Z,18.65
2018-06-22T12:21:54.199Z,18.56
2018-06-22T12:22:54.168Z,18.70
2018-06-22T12:23:54.170Z,18.45
2018-06-22T12:24:54.168Z,18.33
2018-06-22T12:25:54.166Z,18.15
2018-06-22T12:26:54.164Z,18.38
2018-06-22T12:27:54.170Z,18.60
2018-06-22T12:28:54.163Z,18.56
2018-06-22T12:29:54.162Z,18.50
2018-06-22T12:30:54.162Z,18.50
2018-06-22T12:31:54.170Z,18.47
2018-06-22T12:32:54.199Z,18.38
2018-06-22T12:33:54.162Z,18.38
2018-06-22T12:34:54.159Z,18.44
2018-06-22T12:35:54.181Z,18.38
2018-06-22T12:36:54.160Z,18.22
2018-06-22T12:37:54.158Z,18.19
2018-06-22T12:38:54.156Z,18.15
2018-06-22T12:39:54.159Z,18.19
2018-06-22T12:40:54.157Z,18.33
2018-06-22T12:41:54.157Z,18.52
2018-06-22T12:42:54.156Z,18.63
2018-06-22T12:43:54.155Z,18.74
2018-06-22T12:44:54.202Z,19.22
2018-06-22T12:45:54.155Z,19.21
2018-06-22T12:46:54.154Z,18.99
2018-06-22T12:47:54.153Z,19.18
2018-06-22T12:48:54.189Z,19.18
2018-06-22T12:49:54.153Z,19.07
2018-06-22T12:50:54.156Z,19.18
2018-06-22T12:51:54.160Z,18.74
2018-06-22T12:52:54.196Z,18.86